Eagle San Antonio — 9V9330 — position and weather

sailwx.info

Track history (hours):
 
Tides and Currents Weather Stations Pressure Air Temp Water Temp Dewpoint Dewpoint Depression Visibility Wind Speed Wind Dir Waves Ship Positions

Eagle San Antonio

Last reported at 2015-May-21 02:33 UTC. Time now 2015-May-27 14:01 UTC.
Position N 35°08' W 007°13'.

Length 274 m; draft 9.3 m.

Type: Tanker. MMSI: 566453000.

Date/timePositionNaut miles runAvg speedWind from/ knotsBaromVisibWave heightAir tempDewpointWater temp
2015-May-21 02:33N 35°08' W 007°13'9711.9
2015-May-20 18:22N 35°59' W 005°31'8 9.7
2015-May-20 17:33N 36°04' W 005°24'2 1.9
2015-May-20 16:32N 36°06' W 005°25'0 0.0
2015-May-20 15:33N 36°06' W 005°24'0 0.1
2015-May-20 14:33N 36°06' W 005°25'0 0.1
2015-May-20 13:33N 36°06' W 005°25'0 0.0
2015-May-20 12:32N 36°06' W 005°25'0 0.1
2015-May-20 11:32N 36°06' W 005°25'0 0.1
2015-May-20 10:32N 36°06' W 005°24'0 0.0
2015-May-20 09:32N 36°06' W 005°24'0 0.0
2015-May-20 08:32N 36°06' W 005°24'0 0.0
2015-May-20 07:32N 36°06' W 005°24'0 0.0
2015-May-20 06:33N 36°06' W 005°24'0 0.2
2015-May-20 05:30N 36°06' W 005°24'0 0.1
2015-May-20 04:32N 36°06' W 005°24'0 0.0
2015-May-20 03:33N 36°06' W 005°24'0 0.0
2015-May-20 02:32N 36°06' W 005°24'0 0.1
2015-May-20 01:33N 36°06' W 005°24'0 0.0
2015-May-20 00:33N 36°06' W 005°24'0 0.0
2015-May-19 23:33N 36°06' W 005°24'0 0.0
2015-May-19 22:33N 36°06' W 005°24'0 0.0
2015-May-19 21:29N 36°06' W 005°24'0 0.4
2015-May-19 20:33N 36°05' W 005°24'5 4.7
2015-May-19 19:34N 36°05' W 005°18'1312.6
2015-May-19 18:33N 36°11' W 005°04'2 0.3
2015-May-19 10:11N 36°10' W 005°07'4 4.3
2015-May-19 09:21N 36°11' W 005°12'1 1.0
2015-May-19 08:21N 36°10' W 005°12'3 3.5
2015-May-19 07:26N 36°07' W 005°13'1 1.7
2015-May-19 06:34N 36°08' W 005°11'10611.4
2015-May-18 21:15N 36°20' W 003°01'912.3
2015-May-18 20:33N 36°21' W 002°51'1211.8
2015-May-18 19:34N 36°23' W 002°36'1312.5
2015-May-18 18:33N 36°25' W 002°21'1313.3
2015-May-18 17:34N 36°29' W 002°05'1313.0
2015-May-18 16:34N 36°37' W 001°53'1312.7
2015-May-18 15:34N 36°46' W 001°41'1312.7
2015-May-18 14:33N 36°55' W 001°29'4113.1
2015-May-18 11:23N 37°30' W 001°03'5 0.1
2015-May-16 13:26N 37°34' W 000°60'3 0.3
2015-May-16 04:19N 37°33' W 001°03'1 0.1
2015-May-15 21:28N 37°33' W 001°03'4 4.5
2015-May-15 20:30N 37°29' W 001°04'1010.9
2015-May-15 19:33N 37°19' W 001°09'7412.2
2015-May-15 13:26N 36°22' W 002°09'1212.7
2015-May-15 12:28N 36°20' W 002°24'1212.8
2015-May-15 11:30N 36°18' W 002°39'1212.4
2015-May-15 10:31N 36°17' W 002°55'1212.1
2015-May-15 09:31N 36°15' W 003°09'9812.3
2015-May-15 01:32N 36°00' W 005°10'1515.1
2015-May-15 00:34N 35°57' W 005°27'1914.2
2015-May-14 23:16N 35°54' W 005°50'7712.8
2015-May-14 17:16N 35°14' W 007°10'913.2
2015-May-14 16:33N 35°08' W 007°19'1413.4
2015-May-14 15:31N 34°58' W 007°31'1313.3
2015-May-14 14:31N 34°49' W 007°43'5212.7
2015-May-14 10:28N 34°14' W 008°29'1212.9
2015-May-14 09:33N 34°06' W 008°40'1412.9
2015-May-14 08:29N 33°57' W 008°52'1612.9
2015-May-14 07:15N 33°46' W 009°06'1213.1
2015-May-14 06:22N 33°38' W 009°16'2413.1
2015-May-14 04:33N 33°22' W 009°37'1313.0
2015-May-14 03:33N 33°12' W 009°46'1513.1
2015-May-14 02:23N 32°59' W 009°56'1313.0
2015-May-14 01:25N 32°48' W 010°04'2813.1
2015-May-13 23:17N 32°24' W 010°22'1013.1
2015-May-13 22:33N 32°16' W 010°28'1313.0
2015-May-13 21:32N 32°05' W 010°36'1512.8
2015-May-13 20:21N 31°53' W 010°46'1012.7
2015-May-13 19:33N 31°44' W 010°52'1413.0
2015-May-13 18:27N 31°32' W 011°01'1212.7
2015-May-13 17:32N 31°22' W 011°08'1312.9
2015-May-13 16:33N 31°11' W 011°16'  
Track history (hours):
 
Tides and Currents Weather Stations Pressure Air Temp Water Temp Dewpoint Dewpoint Depression Visibility Wind Speed Wind Dir Waves Ship Positions

Eagle San Antonio

Last reported at 2015-May-21 02:33 UTC. Time now 2015-May-27 14:01 UTC.
Position N 35°08' W 007°13'.

Length 274 m; draft 9.3 m.

Type: Tanker. MMSI: 566453000.

Date/timePositionNaut miles runAvg speedWind from/ knotsBaromVisibWave heightAir tempDewpointWater temp
2015-May-21 02:33N 35°08' W 007°13'9711.9
2015-May-20 18:22N 35°59' W 005°31'8 9.7
2015-May-20 17:33N 36°04' W 005°24'2 1.9
2015-May-20 16:32N 36°06' W 005°25'0 0.0
2015-May-20 15:33N 36°06' W 005°24'0 0.1
2015-May-20 14:33N 36°06' W 005°25'0 0.1
2015-May-20 13:33N 36°06' W 005°25'0 0.0
2015-May-20 12:32N 36°06' W 005°25'0 0.1
2015-May-20 11:32N 36°06' W 005°25'0 0.1
2015-May-20 10:32N 36°06' W 005°24'0 0.0
2015-May-20 09:32N 36°06' W 005°24'0 0.0
2015-May-20 08:32N 36°06' W 005°24'0 0.0
2015-May-20 07:32N 36°06' W 005°24'0 0.0
2015-May-20 06:33N 36°06' W 005°24'0 0.2
2015-May-20 05:30N 36°06' W 005°24'0 0.1
2015-May-20 04:32N 36°06' W 005°24'0 0.0
2015-May-20 03:33N 36°06' W 005°24'0 0.0
2015-May-20 02:32N 36°06' W 005°24'0 0.1
2015-May-20 01:33N 36°06' W 005°24'0 0.0
2015-May-20 00:33N 36°06' W 005°24'0 0.0
2015-May-19 23:33N 36°06' W 005°24'0 0.0
2015-May-19 22:33N 36°06' W 005°24'0 0.0
2015-May-19 21:29N 36°06' W 005°24'0 0.4
2015-May-19 20:33N 36°05' W 005°24'5 4.7
2015-May-19 19:34N 36°05' W 005°18'1312.6
2015-May-19 18:33N 36°11' W 005°04'2 0.3
2015-May-19 10:11N 36°10' W 005°07'4 4.3
2015-May-19 09:21N 36°11' W 005°12'1 1.0
2015-May-19 08:21N 36°10' W 005°12'3 3.5
2015-May-19 07:26N 36°07' W 005°13'1 1.7
2015-May-19 06:34N 36°08' W 005°11'10611.4
2015-May-18 21:15N 36°20' W 003°01'912.3
2015-May-18 20:33N 36°21' W 002°51'1211.8
2015-May-18 19:34N 36°23' W 002°36'1312.5
2015-May-18 18:33N 36°25' W 002°21'1313.3
2015-May-18 17:34N 36°29' W 002°05'1313.0
2015-May-18 16:34N 36°37' W 001°53'1312.7
2015-May-18 15:34N 36°46' W 001°41'1312.7
2015-May-18 14:33N 36°55' W 001°29'4113.1
2015-May-18 11:23N 37°30' W 001°03'5 0.1
2015-May-16 13:26N 37°34' W 000°60'3 0.3
2015-May-16 04:19N 37°33' W 001°03'1 0.1
2015-May-15 21:28N 37°33' W 001°03'4 4.5
2015-May-15 20:30N 37°29' W 001°04'1010.9
2015-May-15 19:33N 37°19' W 001°09'7412.2
2015-May-15 13:26N 36°22' W 002°09'1212.7
2015-May-15 12:28N 36°20' W 002°24'1212.8
2015-May-15 11:30N 36°18' W 002°39'1212.4
2015-May-15 10:31N 36°17' W 002°55'1212.1
2015-May-15 09:31N 36°15' W 003°09'9812.3
2015-May-15 01:32N 36°00' W 005°10'1515.1
2015-May-15 00:34N 35°57' W 005°27'1914.2
2015-May-14 23:16N 35°54' W 005°50'7712.8
2015-May-14 17:16N 35°14' W 007°10'913.2
2015-May-14 16:33N 35°08' W 007°19'1413.4
2015-May-14 15:31N 34°58' W 007°31'1313.3
2015-May-14 14:31N 34°49' W 007°43'5212.7
2015-May-14 10:28N 34°14' W 008°29'1212.9
2015-May-14 09:33N 34°06' W 008°40'1412.9
2015-May-14 08:29N 33°57' W 008°52'1612.9
2015-May-14 07:15N 33°46' W 009°06'1213.1
2015-May-14 06:22N 33°38' W 009°16'2413.1
2015-May-14 04:33N 33°22' W 009°37'1313.0
2015-May-14 03:33N 33°12' W 009°46'1513.1
2015-May-14 02:23N 32°59' W 009°56'1313.0
2015-May-14 01:25N 32°48' W 010°04'2813.1
2015-May-13 23:17N 32°24' W 010°22'1013.1
2015-May-13 22:33N 32°16' W 010°28'1313.0
2015-May-13 21:32N 32°05' W 010°36'1512.8
2015-May-13 20:21N 31°53' W 010°46'1012.7
2015-May-13 19:33N 31°44' W 010°52'1413.0
2015-May-13 18:27N 31°32' W 011°01'1212.7
2015-May-13 17:32N 31°22' W 011°08'1312.9
2015-May-13 16:33N 31°11' W 011°16'  

Dump ship's entire track history